Time;durP1;ratioP1;P1;durP2;ratioP2;P2;SDS_P1;SDS_P2;PMS_P1;PMS_P2;Temp;Humidity;BMP_temperature;BMP_pressure;BME280_temperature;BME280_humidity;BME280_pressure;Samples;Min_cycle;Max_cycle;Signal;HPM_P1;HPM_P2
2022/01/01 00:02:15;;;;;;;29.55;14.63;;;;;;;11.78;93.27;102258.13;5053852;28;20110;-65
2022/01/01 00:04:42;;;;;;;31.40;13.63;;;;;;;11.78;93.38;102258.13;5043691;28;20053;-65
2022/01/01 00:07:11;;;;;;;28.02;13.38;;;;;;;11.79;93.50;102265.19;5043799;28;20381;-65
2022/01/01 00:09:38;;;;;;;25.95;13.55;;;;;;;11.78;93.53;102273.25;5037598;28;20041;-65
2022/01/01 00:12:04;;;;;;;32.53;13.10;;;;;;;11.78;93.54;102279.44;5052166;28;20136;-65
2022/01/01 00:14:29;;;;;;;33.88;14.40;;;;;;;11.79;93.52;102281.16;5052645;28;20120;-65
2022/01/01 00:16:55;;;;;;;27.98;12.48;;;;;;;11.79;93.46;102288.28;5046372;28;20041;-66
2022/01/01 00:19:21;;;;;;;35.40;14.98;;;;;;;11.79;93.39;102274.97;5046055;28;20028;-66
2022/01/01 00:21:46;;;;;;;30.95;12.73;;;;;;;11.79;93.27;102275.84;5052304;28;20063;-65
2022/01/01 00:24:11;;;;;;;30.20;12.77;;;;;;;11.79;93.54;102286.50;5052778;28;20021;-65
2022/01/01 00:26:37;;;;;;;32.50;11.55;;;;;;;11.78;93.71;102282.09;5053631;28;20033;-64
2022/01/01 00:29:03;;;;;;;33.30;11.80;;;;;;;11.79;93.53;102286.50;5052422;28;20032;-64
2022/01/01 00:31:29;;;;;;;32.75;11.75;;;;;;;11.78;93.60;102284.75;5048343;28;20042;-64
2022/01/01 00:33:54;;;;;;;29.13;12.30;;;;;;;11.77;93.89;102276.88;5053026;28;20075;-66
2022/01/01 00:36:20;;;;;;;33.15;11.18;;;;;;;11.76;93.55;102292.00;5051671;28;20475;-65
2022/01/01 00:38:45;;;;;;;26.42;11.02;;;;;;;11.76;93.64;102285.81;5051463;28;20065;-65
2022/01/01 00:41:10;;;;;;;32.70;12.70;;;;;;;11.75;93.82;102278.75;5050891;28;20060;-66
2022/01/01 00:43:36;;;;;;;30.33;12.43;;;;;;;11.73;93.80;102284.19;5051984;28;20021;-65
2022/01/01 00:46:01;;;;;;;28.80;12.10;;;;;;;11.73;93.79;102272.69;5051975;28;20081;-67
2022/01/01 00:48:26;;;;;;;31.02;12.82;;;;;;;11.73;93.66;102276.19;5051741;28;20029;-63
2022/01/01 00:50:52;;;;;;;28.30;10.95;;;;;;;11.71;93.91;102267.44;5051392;28;20372;-65
2022/01/01 00:53:17;;;;;;;29.25;12.20;;;;;;;11.71;93.73;102269.22;5051268;28;20136;-64
2022/01/01 00:55:42;;;;;;;29.38;12.73;;;;;;;11.72;93.87;102276.28;5051953;28;20044;-66
2022/01/01 00:58:08;;;;;;;29.13;11.52;;;;;;;11.69;93.60;102280.00;5049969;28;20043;-64
2022/01/01 01:00:33;;;;;;;24.40;10.73;;;;;;;11.69;93.86;102282.66;5050772;28;20459;-65
2022/01/01 01:02:58;;;;;;;32.50;12.07;;;;;;;11.68;94.13;102278.25;5049375;28;20053;-66
2022/01/01 01:05:24;;;;;;;30.77;12.35;;;;;;;11.68;94.22;102280.09;5048615;28;20111;-64
2022/01/01 01:07:50;;;;;;;31.63;11.50;;;;;;;11.67;94.25;102279.19;5050266;28;20536;-64
2022/01/01 01:10:15;;;;;;;35.33;12.88;;;;;;;11.67;93.94;102271.22;5050381;28;20033;-64
2022/01/01 01:12:44;;;;;;;28.90;12.02;;;;;;;11.67;93.81;102279.19;5049637;28;20506;-65
2022/01/01 01:15:17;;;;;;;34.10;13.43;;;;;;;11.66;94.14;102286.34;5050344;28;20032;-64
2022/01/01 01:17:48;;;;;;;32.15;12.20;;;;;;;11.66;94.17;102294.31;5050435;28;20161;-65
2022/01/01 01:20:14;;;;;;;36.35;13.45;;;;;;;11.68;93.92;102286.25;5049674;28;20025;-64
2022/01/01 01:22:40;;;;;;;31.17;11.45;;;;;;;11.67;94.21;102287.19;5049057;28;20024;-64
2022/01/01 01:25:05;;;;;;;30.98;12.35;;;;;;;11.66;93.99;102286.34;5050092;28;20395;-65
2022/01/01 01:27:31;;;;;;;32.17;12.30;;;;;;;11.65;93.98;102289.09;5049781;28;20072;-65
2022/01/01 01:29:58;;;;;;;30.55;11.27;;;;;;;11.66;94.37;102289.00;5050220;28;20021;-64
2022/01/01 01:32:24;;;;;;;27.30;10.50;;;;;;;11.65;94.29;102276.63;5049484;28;20463;-64
2022/01/01 01:34:49;;;;;;;30.90;11.35;;;;;;;11.65;94.72;102281.09;5050290;28;20025;-63
2022/01/01 01:37:14;;;;;;;30.55;11.82;;;;;;;11.67;94.45;102279.19;5049960;28;20029;-65
2022/01/01 01:39:40;;;;;;;29.00;10.90;;;;;;;11.66;94.51;102278.34;5049610;28;20033;-65
2022/01/01 01:42:05;;;;;;;30.70;12.10;;;;;;;11.65;94.61;102283.75;5049989;28;20033;-65
2022/01/01 01:44:41;;;;;;;29.55;11.25;;;;;;;11.65;94.33;102297.06;5049872;28;20025;-64
2022/01/01 01:47:13;;;;;;;29.27;11.20;;;;;;;11.64;94.54;102298.00;5038557;28;20031;-64
2022/01/01 01:49:39;;;;;;;26.17;10.70;;;;;;;11.62;94.91;102311.44;5050088;28;20029;-64
2022/01/01 01:52:04;;;;;;;28.15;11.60;;;;;;;11.62;95.03;102313.22;5049568;28;20036;-65
2022/01/01 01:54:30;;;;;;;30.25;12.43;;;;;;;11.62;95.06;102310.56;5050022;28;20163;-65
2022/01/01 01:56:55;;;;;;;30.25;11.55;;;;;;;11.61;95.01;102312.38;5050199;28;20032;-65
2022/01/01 01:59:21;;;;;;;27.48;11.85;;;;;;;11.61;95.08;102309.69;5050161;28;20035;-64
2022/01/01 02:01:47;;;;;;;27.48;11.98;;;;;;;11.61;95.12;102308.84;5049184;28;20033;-63
2022/01/01 02:04:12;;;;;;;28.13;11.80;;;;;;;11.61;95.07;102307.03;5053416;28;20400;-65
2022/01/01 02:06:40;;;;;;;31.90;12.20;;;;;;;11.60;95.30;102301.81;5053810;28;20155;-64
2022/01/01 02:09:05;;;;;;;30.33;12.68;;;;;;;11.61;94.96;102300.88;5053038;28;20475;-65
2022/01/01 02:11:31;;;;;;;27.70;11.48;;;;;;;11.61;95.36;102303.53;5053424;28;20078;-64
2022/01/01 02:18:50;;;;;;;25.67;11.67;;;;;;;11.61;95.30;102312.38;5052811;28;20275;-63
2022/01/01 02:21:17;;;;;;;24.33;12.35;;;;;;;11.62;95.34;102300.78;5053296;28;20876;-64
2022/01/01 02:23:44;;;;;;;29.13;12.50;;;;;;;11.62;95.20;102292.81;5052781;28;20036;-64
2022/01/01 02:26:16;;;;;;;23.80;13.05;;;;;;;11.63;95.28;102296.31;5053320;28;20021;-64
2022/01/01 02:28:43;;;;;;;25.98;13.55;;;;;;;11.63;95.07;102293.66;5053108;28;20502;-64
2022/01/01 02:31:09;;;;;;;27.52;13.38;;;;;;;11.63;95.26;102299.81;5052626;28;20398;-63
2022/01/01 02:33:36;;;;;;;30.25;13.82;;;;;;;11.64;95.44;102298.88;5053060;28;20021;-63
2022/01/01 02:36:02;;;;;;;28.10;12.38;;;;;;;11.64;95.22;102293.56;5053230;28;20037;-64
2022/01/01 02:38:27;;;;;;;29.00;12.43;;;;;;;11.65;94.79;102294.41;5053127;28;20486;-64
2022/01/01 02:40:53;;;;;;;25.73;13.10;;;;;;;11.64;95.11;102296.22;5052081;28;20447;-64
2022/01/01 02:43:18;;;;;;;27.67;13.20;;;;;;;11.65;95.14;102297.06;5051884;28;20025;-64
2022/01/01 02:45:43;;;;;;;22.55;13.93;;;;;;;11.65;94.98;102299.72;5050275;28;20025;-63
2022/01/01 02:48:12;;;;;;;25.83;13.48;;;;;;;11.64;95.11;102304.22;5051852;28;20107;-65
2022/01/01 02:50:38;;;;;;;27.83;14.55;;;;;;;11.65;95.06;102287.28;5051469;28;20017;-65
2022/01/01 02:53:03;;;;;;;27.45;14.30;;;;;;;11.65;94.78;102284.63;5049656;28;20021;-65
2022/01/01 02:55:28;;;;;;;22.48;14.50;;;;;;;11.65;94.92;102279.28;5052347;28;20035;-65
2022/01/01 02:57:53;;;;;;;27.90;14.30;;;;;;;11.65;94.82;102284.63;5052327;28;20051;-64
2022/01/01 03:00:19;;;;;;;28.80;14.23;;;;;;;11.65;94.71;102276.63;5052414;28;20118;-65
2022/01/01 03:02:45;;;;;;;29.40;14.23;;;;;;;11.64;94.57;102264.28;5052396;28;20292;-65
2022/01/01 03:05:10;;;;;;;27.10;13.68;;;;;;;11.65;94.70;102267.78;5051916;28;20410;-65
2022/01/01 03:07:36;;;;;;;29.02;13.82;;;;;;;11.63;94.74;102265.22;5052542;28;20033;-65
2022/01/01 03:10:03;;;;;;;25.67;14.18;;;;;;;11.65;94.53;102271.31;5052328;28;20028;-64
2022/01/01 03:12:28;;;;;;;25.63;13.55;;;;;;;11.64;94.59;102282.91;5051939;28;20029;-64
2022/01/01 03:14:53;;;;;;;26.60;13.53;;;;;;;11.65;94.32;102275.78;5051885;28;20055;-63
2022/01/01 03:17:18;;;;;;;27.92;13.90;;;;;;;11.64;94.50;102269.59;5052475;28;20274;-64
2022/01/01 03:19:44;;;;;;;27.13;13.55;;;;;;;11.64;94.49;102280.25;5051563;28;20037;-64
2022/01/01 03:22:09;;;;;;;29.95;13.82;;;;;;;11.64;94.44;102272.28;5051826;28;20029;-64
2022/01/01 03:24:34;;;;;;;28.33;14.52;;;;;;;11.63;94.12;102267.88;5052028;28;20025;-63
2022/01/01 03:27:01;;;;;;;30.48;13.80;;;;;;;11.65;94.13;102273.13;5052256;28;20104;-64
2022/01/01 03:29:28;;;;;;;26.17;13.73;;;;;;;11.63;93.97;102265.22;5052217;28;20033;-65
2022/01/01 03:31:54;;;;;;;24.75;13.38;;;;;;;11.65;94.06;102262.47;5051639;28;20028;-65
2022/01/01 03:34:21;;;;;;;29.20;13.52;;;;;;;11.65;94.12;102267.78;5052042;28;20036;-64
2022/01/01 03:36:46;;;;;;;22.95;13.07;;;;;;;11.65;93.83;102268.66;5052054;28;20029;-63
2022/01/01 03:39:12;;;;;;;27.65;12.88;;;;;;;11.65;93.88;102262.47;5051847;28;20533;-64
2022/01/01 03:41:37;;;;;;;20.48;12.20;;;;;;;11.65;94.12;102267.78;5051293;28;20055;-65
2022/01/01 03:44:03;;;;;;;22.13;11.57;;;;;;;11.64;93.82;102260.75;5051710;28;20079;-64
2022/01/01 03:46:28;;;;;;;28.23;12.57;;;;;;;11.63;93.88;102259.91;5051275;28;20116;-64
2022/01/01 03:48:53;;;;;;;22.42;10.68;;;;;;;11.63;93.57;102259.06;5051472;28;20374;-65
2022/01/01 03:51:18;;;;;;;24.73;12.10;;;;;;;11.61;93.63;102258.28;5051741;28;20443;-64
2022/01/01 03:53:44;;;;;;;24.15;11.63;;;;;;;11.63;93.48;102251.06;5051514;28;20083;-64
2022/01/01 03:56:09;;;;;;;28.10;10.65;;;;;;;11.62;93.35;102258.22;5049814;28;20472;-64
2022/01/01 03:58:35;;;;;;;22.55;10.40;;;;;;;11.63;93.26;102253.72;5051387;28;20033;-65
2022/01/01 04:01:00;;;;;;;20.25;9.70;;;;;;;11.65;93.08;102254.50;5051459;28;20044;-64
2022/01/01 04:03:25;;;;;;;19.27;9.57;;;;;;;11.65;92.76;102262.47;5050883;28;20060;-65
2022/01/01 04:05:51;;;;;;;21.13;9.60;;;;;;;11.64;92.96;102258.97;5051785;28;20052;-64
2022/01/01 04:08:16;;;;;;;22.05;9.07;;;;;;;11.66;92.81;102258.88;5051326;28;20090;-64
2022/01/01 04:10:41;;;;;;;20.67;9.15;;;;;;;11.65;92.45;102262.47;5051302;28;20021;-64
2022/01/01 04:13:09;;;;;;;19.48;8.52;;;;;;;11.66;92.59;102262.38;5051002;28;20172;-65
2022/01/01 04:15:36;;;;;;;19.23;8.73;;;;;;;11.65;92.39;102255.34;5051360;28;20033;-64
2022/01/01 04:18:08;;;;;;;21.38;8.88;;;;;;;11.66;92.14;102250.88;5050636;28;20154;-64
2022/01/01 04:20:34;;;;;;;20.60;8.65;;;;;;;11.65;92.27;102252.69;5049928;28;20037;-65
2022/01/01 04:22:59;;;;;;;17.02;8.25;;;;;;;11.66;91.80;102248.22;5050963;28;20538;-65
2022/01/01 04:25:26;;;;;;;19.98;7.82;;;;;;;11.68;91.88;102256.97;5049572;28;20028;-64
2022/01/01 04:27:52;;;;;;;16.15;8.38;;;;;;;11.66;91.92;102253.56;5051428;28;20044;-65
2022/01/01 04:30:18;;;;;;;16.40;8.32;;;;;;;11.69;91.65;102257.81;5050616;28;20021;-64
2022/01/01 04:32:43;;;;;;;22.65;8.48;;;;;;;11.67;91.91;102249.94;5050428;28;20044;-65
2022/01/01 04:35:09;;;;;;;20.95;7.78;;;;;;;11.70;91.79;102259.53;5050744;28;20048;-64
2022/01/01 04:37:35;;;;;;;20.30;8.88;;;;;;;11.71;91.33;102262.13;5050802;28;20064;-65
2022/01/01 04:40:00;;;;;;;17.80;7.97;;;;;;;11.70;91.30;102270.19;5050207;28;20444;-65
2022/01/01 04:42:26;;;;;;;19.73;8.70;;;;;;;11.71;91.42;102267.44;5050840;28;20044;-65
2022/01/01 04:44:52;;;;;;;17.08;8.02;;;;;;;11.71;90.99;102266.56;5049406;28;20162;-65
2022/01/01 04:47:17;;;;;;;21.05;8.50;;;;;;;11.72;91.33;102268.28;5050589;28;20053;-65
2022/01/01 04:49:42;;;;;;;18.52;8.40;;;;;;;11.71;91.20;102267.44;5050015;28;20083;-65
2022/01/01 04:52:07;;;;;;;16.88;8.23;;;;;;;11.71;90.95;102272.78;5050434;28;20446;-65
2022/01/01 04:54:37;;;;;;;18.13;8.73;;;;;;;11.71;91.17;102279.88;5050608;28;20087;-65
2022/01/01 04:57:03;;;;;;;19.25;8.07;;;;;;;11.69;91.33;102280.00;5049947;28;20075;-63
2022/01/01 04:59:28;;;;;;;18.23;8.50;;;;;;;11.69;91.09;102277.34;5050923;28;20037;-63
2022/01/01 05:01:53;;;;;;;20.13;8.02;;;;;;;11.68;90.89;102275.59;5050455;28;20410;-62
2022/01/01 05:04:19;;;;;;;19.25;7.88;;;;;;;11.68;90.73;102272.09;5050035;28;20048;-64
2022/01/01 05:06:49;;;;;;;17.30;8.03;;;;;;;11.69;91.08;102279.13;5048876;28;20064;-63
2022/01/01 05:09:15;;;;;;;18.15;8.00;;;;;;;11.67;91.04;102273.88;5050559;28;20273;-64
2022/01/01 05:11:40;;;;;;;19.58;8.25;;;;;;;11.66;90.89;102280.16;5050350;28;20399;-64
2022/01/01 05:14:05;;;;;;;17.10;7.60;;;;;;;11.66;90.69;102281.00;5049633;28;20028;-65
2022/01/01 05:16:31;;;;;;;18.98;8.05;;;;;;;11.67;90.66;102279.19;5050332;28;20395;-64
2022/01/01 05:18:56;;;;;;;16.60;8.10;;;;;;;11.66;90.75;102282.81;5049590;28;20024;-64
2022/01/01 05:21:21;;;;;;;19.80;8.48;;;;;;;11.65;90.78;102297.91;5050241;28;20111;-65
2022/01/01 05:23:46;;;;;;;17.58;8.20;;;;;;;11.65;90.58;102289.09;5050231;28;20033;-64
2022/01/01 05:26:12;;;;;;;18.95;8.55;;;;;;;11.64;91.00;102290.91;5050260;28;20025;-64
2022/01/01 05:28:37;;;;;;;16.65;8.25;;;;;;;11.65;90.84;102289.09;5049611;28;20431;-63
2022/01/01 05:31:04;;;;;;;17.75;8.50;;;;;;;11.64;90.80;102290.91;5050219;28;20056;-64
2022/01/01 05:33:29;;;;;;;22.30;8.63;;;;;;;11.63;90.31;102286.50;5050120;28;20072;-65
2022/01/01 05:35:54;;;;;;;22.27;8.52;;;;;;;11.64;90.46;102292.69;5049424;28;20052;-64
2022/01/01 05:38:20;;;;;;;17.10;7.85;;;;;;;11.64;90.52;102290.03;5054273;28;20036;-63
2022/01/01 05:40:45;;;;;;;18.10;7.63;;;;;;;11.63;90.73;102283.84;5054425;28;20036;-64
2022/01/01 05:43:13;;;;;;;16.88;8.43;;;;;;;11.62;90.34;102283.94;5053508;28;20700;-63
2022/01/01 05:45:41;;;;;;;17.40;7.97;;;;;;;11.62;90.31;102287.47;5053984;28;20025;-63
2022/01/01 05:48:06;;;;;;;16.80;8.32;;;;;;;11.62;90.36;102290.13;5053452;28;20028;-64
2022/01/01 05:50:31;;;;;;;17.80;8.05;;;;;;;11.61;90.39;102287.56;5053894;28;20025;-64
2022/01/01 05:52:57;;;;;;;21.17;8.10;;;;;;;11.59;90.22;102281.44;5053833;28;20037;-64
2022/01/01 05:55:22;;;;;;;16.50;8.37;;;;;;;11.61;90.48;102283.09;5053895;28;20290;-63
2022/01/01 05:57:47;;;;;;;18.55;8.10;;;;;;;11.60;90.49;102286.69;5053285;28;20297;-64
2022/01/01 06:00:13;;;;;;;19.57;7.47;;;;;;;11.59;90.58;102285.00;5053795;28;20025;-63
2022/01/01 06:02:42;;;;;;;19.08;8.00;;;;;;;11.59;90.14;102279.66;5053471;28;20295;-64
2022/01/01 06:05:08;;;;;;;;;;;;;;;11.65;90.49;102281.94;5053290;28;20071;-65
2022/01/01 06:07:33;;;;;;;17.50;7.32;;;;;;;11.60;89.80;102272.53;5053875;28;20344;-65
2022/01/01 06:09:59;;;;;;;16.65;7.18;;;;;;;11.60;89.92;102269.88;5053400;28;20032;-63
2022/01/01 06:12:24;;;;;;;18.95;7.32;;;;;;;11.59;89.69;102268.16;5053069;28;20036;-64
2022/01/01 06:14:50;;;;;;;17.13;6.40;;;;;;;11.59;89.96;102274.34;5053645;28;20509;-63
2022/01/01 06:17:15;;;;;;;15.25;6.55;;;;;;;11.55;89.66;102267.47;5053507;28;20029;-65
2022/01/01 06:19:40;;;;;;;18.83;6.90;;;;;;;11.52;89.32;102272.13;5053298;28;20036;-64
2022/01/01 06:22:05;;;;;;;18.10;6.75;;;;;;;11.49;89.54;102265.19;5053311;28;20057;-65
2022/01/01 06:24:31;;;;;;;17.60;6.55;;;;;;;11.44;89.25;102262.78;5051461;28;20059;-65
2022/01/01 06:26:56;;;;;;;19.85;7.07;;;;;;;11.42;89.29;102271.78;5053246;28;20033;-64
2022/01/01 06:29:21;;;;;;;14.00;6.80;;;;;;;11.39;89.32;102270.19;5053274;28;20056;-64
2022/01/01 06:31:46;;;;;;;19.53;6.23;;;;;;;11.36;89.61;102275.66;5052719;28;20295;-64
2022/01/01 06:34:12;;;;;;;17.08;6.68;;;;;;;11.34;89.42;102274.03;5053188;28;20831;-65
2022/01/01 06:36:37;;;;;;;15.65;6.70;;;;;;;11.32;89.62;102278.59;5052429;28;20501;-65
2022/01/01 06:39:03;;;;;;;16.23;5.65;;;;;;;11.28;89.72;102283.22;5052185;28;20021;-65
2022/01/01 06:41:28;;;;;;;16.80;6.22;;;;;;;11.24;89.40;102285.19;5052861;28;20029;-64
2022/01/01 06:43:54;;;;;;;14.68;6.35;;;;;;;11.25;89.64;102278.91;5053118;28;20501;-63
2022/01/01 06:46:19;;;;;;;20.33;6.47;;;;;;;11.24;89.53;102284.31;5052946;28;20032;-61
2022/01/01 06:48:44;;;;;;;18.23;6.53;;;;;;;11.21;89.27;102285.38;5051477;28;20033;-63
2022/01/01 06:51:10;;;;;;;17.13;6.22;;;;;;;11.18;89.60;102284.69;5051930;28;20041;-64
2022/01/01 06:53:35;;;;;;;15.82;5.78;;;;;;;11.16;89.46;102275.91;5052324;28;20122;-63
2022/01/01 06:56:05;;;;;;;20.05;6.40;;;;;;;11.13;89.89;102271.63;5052729;28;20068;-63
2022/01/01 06:58:31;;;;;;;13.13;5.50;;;;;;;11.12;89.84;102285.88;5052364;28;20037;-64
2022/01/01 07:00:56;;;;;;;12.73;5.35;;;;;;;11.09;89.81;102286.03;5052972;28;20033;-64
2022/01/01 07:03:22;;;;;;;17.33;5.33;;;;;;;11.09;89.73;102292.22;5052578;28;20083;-63
2022/01/01 07:05:48;;;;;;;16.92;5.38;;;;;;;11.09;89.90;102288.69;5052705;28;20658;-64
2022/01/01 07:08:13;;;;;;;16.02;5.50;;;;;;;11.09;89.82;102286.03;5051352;28;20023;-65
2022/01/01 07:10:41;;;;;;;12.95;5.07;;;;;;;11.09;89.71;102302.00;5051307;28;20029;-64
2022/01/01 07:13:07;;;;;;;12.48;5.35;;;;;;;11.09;89.43;102315.28;5050635;28;20025;-64
2022/01/01 07:15:32;;;;;;;15.88;5.47;;;;;;;11.09;89.32;102316.16;5051211;28;20040;-65
2022/01/01 07:17:57;;;;;;;11.98;5.07;;;;;;;11.08;89.72;102310.94;5050458;28;20130;-65
2022/01/01 07:20:23;;;;;;;13.45;5.25;;;;;;;11.08;89.32;102306.47;5051042;28;20032;-63
2022/01/01 07:22:48;;;;;;;11.95;5.03;;;;;;;11.08;89.35;102308.28;5051167;28;20025;-64
2022/01/01 07:25:15;;;;;;;14.23;5.00;;;;;;;11.09;89.46;102302.00;5045316;28;20036;-63
2022/01/01 07:27:40;;;;;;;12.43;5.30;;;;;;;11.07;89.37;102304.75;5052100;28;20027;-64
2022/01/01 07:30:06;;;;;;;16.88;6.47;;;;;;;11.06;89.41;102305.69;5053105;28;20399;-64
2022/01/01 07:32:32;;;;;;;17.95;5.90;;;;;;;11.05;89.44;102303.97;5046905;28;20083;-65
2022/01/01 07:34:57;;;;;;;20.92;5.80;;;;;;;11.05;89.77;102311.94;5050250;28;20460;-65
2022/01/01 07:37:22;;;;;;;14.43;5.80;;;;;;;11.03;89.62;102310.31;5049825;28;20116;-64
2022/01/01 07:39:47;;;;;;;17.08;6.00;;;;;;;11.05;89.33;102316.41;5049593;28;20032;-65
2022/01/01 07:42:13;;;;;;;16.67;6.15;;;;;;;11.04;89.67;102331.53;5050605;28;20099;-64
2022/01/01 07:44:39;;;;;;;15.18;6.15;;;;;;;11.03;89.28;102332.44;5050044;28;20403;-64
2022/01/01 07:47:05;;;;;;;14.60;5.05;;;;;;;11.04;89.27;102328.84;5044317;28;20009;-64
2022/01/01 07:49:31;;;;;;;16.30;5.82;;;;;;;11.04;89.50;102330.63;5049962;28;20048;-64
2022/01/01 07:51:56;;;;;;;13.45;5.28;;;;;;;11.05;89.24;102329.72;5049665;28;20421;-64
2022/01/01 07:54:21;;;;;;;14.15;5.43;;;;;;;11.04;89.30;102334.19;5047767;28;20041;-63
2022/01/01 07:56:47;;;;;;;12.95;4.93;;;;;;;11.04;89.15;102335.94;5048829;28;20033;-64
2022/01/01 07:59:12;;;;;;;15.18;5.43;;;;;;;11.03;89.20;102337.75;5045810;28;20036;-64
2022/01/01 08:01:37;;;;;;;13.90;5.50;;;;;;;11.03;89.22;102332.44;5049552;28;20390;-64
2022/01/01 08:04:03;;;;;;;15.80;5.10;;;;;;;11.04;89.22;102338.63;5048620;28;20041;-65
2022/01/01 08:06:30;;;;;;;12.73;5.43;;;;;;;11.03;89.39;102334.25;5048537;28;20024;-65
2022/01/01 08:08:55;;;;;;;10.90;5.90;;;;;;;11.04;88.90;102330.63;5049547;28;20053;-64
2022/01/01 08:11:20;;;;;;;14.05;4.82;;;;;;;11.05;89.26;102335.88;5048067;28;20100;-64
2022/01/01 08:13:46;;;;;;;16.48;5.60;;;;;;;11.04;89.04;102335.94;5048154;28;20033;-64
2022/01/01 08:16:11;;;;;;;14.55;5.68;;;;;;;11.04;89.13;102342.16;5049444;28;20098;-64
2022/01/01 08:18:36;;;;;;;11.32;5.40;;;;;;;11.05;88.95;102341.19;5049421;28;20442;-64
2022/01/01 08:21:02;;;;;;;13.40;5.80;;;;;;;11.06;89.21;102345.56;5049196;28;20040;-63
2022/01/01 08:23:27;;;;;;;10.60;5.93;;;;;;;11.05;89.04;102335.88;5049218;28;20037;-64
2022/01/01 08:25:52;;;;;;;12.80;5.88;;;;;;;11.04;89.00;102336.84;5050301;28;20037;-64
2022/01/01 08:28:17;;;;;;;11.20;5.35;;;;;;;11.06;88.83;102347.38;5049882;28;20045;-65
2022/01/01 08:30:43;;;;;;;14.75;6.18;;;;;;;11.05;89.08;102341.19;5048989;28;20028;-64
2022/01/01 08:33:08;;;;;;;14.38;5.72;;;;;;;11.07;89.08;102346.44;5049647;28;20132;-64
2022/01/01 08:35:35;;;;;;;15.65;6.22;;;;;;;11.06;88.93;102339.41;5049631;28;20497;-64
2022/01/01 08:38:04;;;;;;;16.45;6.13;;;;;;;11.06;88.85;102340.25;5049820;28;20029;-66
2022/01/01 08:40:30;;;;;;;11.90;5.78;;;;;;;11.06;89.08;102342.91;5047130;28;20108;-64
2022/01/01 08:42:56;;;;;;;11.35;5.32;;;;;;;11.07;89.04;102343.78;5048597;28;20024;-65
2022/01/01 08:45:22;;;;;;;12.93;6.10;;;;;;;11.06;88.90;102340.25;5047909;28;20041;-65
2022/01/01 08:47:47;;;;;;;12.68;6.03;;;;;;;11.06;88.86;102342.91;5047595;28;20033;-65
2022/01/01 08:50:13;;;;;;;16.35;6.57;;;;;;;11.06;88.70;102348.25;5048610;28;20124;-65
2022/01/01 08:52:39;;;;;;;14.63;6.40;;;;;;;11.05;88.88;102345.66;5048387;28;20029;-65
2022/01/01 08:55:05;;;;;;;10.75;5.95;;;;;;;11.05;88.89;102349.16;5049536;28;20509;-64
2022/01/01 08:57:32;;;;;;;26.33;7.57;;;;;;;11.06;88.86;102347.38;5048430;28;20044;-64
2022/01/01 08:59:58;;;;;;;15.60;6.57;;;;;;;11.05;88.83;102353.63;5049164;28;20037;-64
2022/01/01 09:02:23;;;;;;;14.43;6.40;;;;;;;11.05;88.99;102345.66;5047643;28;20494;-66
2022/01/01 09:04:49;;;;;;;13.98;6.50;;;;;;;11.03;89.11;102332.44;5049414;28;20041;-65
2022/01/01 09:07:14;;;;;;;15.18;7.18;;;;;;;11.04;88.84;102325.31;5049513;28;20115;-63
2022/01/01 09:09:40;;;;;;;12.77;6.55;;;;;;;11.04;88.70;102333.28;5049216;28;20040;-64
2022/01/01 09:12:07;;;;;;;17.65;6.78;;;;;;;11.04;88.74;102330.63;5047368;28;20021;-64
2022/01/01 09:14:33;;;;;;;19.60;7.13;;;;;;;11.05;88.96;102321.72;5034372;28;20033;-68
2022/01/01 09:16:58;;;;;;;18.60;6.90;;;;;;;11.06;89.01;102323.47;5049871;28;20463;-66
2022/01/01 09:19:23;;;;;;;13.90;7.20;;;;;;;11.05;88.87;102330.56;5050086;28;20116;-65
2022/01/01 09:21:49;;;;;;;20.92;7.30;;;;;;;11.07;88.89;102325.16;5049444;28;20036;-68
2022/01/01 09:24:16;;;;;;;18.63;7.85;;;;;;;11.06;88.83;102318.13;5049846;28;20037;-64
2022/01/01 09:26:41;;;;;;;15.98;6.93;;;;;;;11.07;88.66;102323.38;5049751;28;20475;-64
2022/01/01 09:29:09;;;;;;;19.60;7.63;;;;;;;11.06;88.58;102324.31;5049280;28;20174;-64
2022/01/01 09:31:36;;;;;;;13.32;6.63;;;;;;;11.06;88.88;102319.00;5038313;28;20029;-65
2022/01/01 09:34:03;;;;;;;18.55;6.80;;;;;;;11.08;89.08;102327.72;5049389;28;20037;-64
2022/01/01 09:36:29;;;;;;;19.15;8.13;;;;;;;11.10;88.60;102319.66;5049761;28;20032;-68
2022/01/01 09:38:54;;;;;;;18.95;7.68;;;;;;;11.10;88.71;102325.84;5045929;28;20048;-65
2022/01/01 09:41:19;;;;;;;18.45;7.65;;;;;;;11.11;88.86;102324.91;5049985;28;20056;-66
2022/01/01 09:43:44;;;;;;;17.88;8.10;;;;;;;11.11;88.69;102326.72;5049457;28;20235;-65
2022/01/01 09:46:13;;;;;;;17.85;7.47;;;;;;;11.10;89.33;102320.53;5050273;28;20025;-65
2022/01/01 09:48:38;;;;;;;13.67;7.70;;;;;;;11.11;88.12;102310.75;5049488;28;20051;-65
2022/01/01 09:51:04;;;;;;;16.13;8.20;;;;;;;11.10;88.47;102309.88;5048872;28;20025;-65
2022/01/01 09:53:31;;;;;;;13.23;7.68;;;;;;;11.11;88.55;102313.44;5049811;28;20024;-65
2022/01/01 09:55:57;;;;;;;16.10;7.50;;;;;;;11.10;88.60;102303.72;5049847;28;20032;-65
2022/01/01 09:58:29;;;;;;;16.67;8.00;;;;;;;11.08;88.65;102303.81;5048343;28;20051;-66
2022/01/01 10:00:55;;;;;;;16.58;7.15;;;;;;;11.09;88.87;102305.53;5047821;28;20032;-65
2022/01/01 10:03:41;;;;;;;13.68;7.63;;;;;;;11.13;88.84;102300.03;5050368;28;20057;-66
2022/01/01 10:06:09;;;;;;;14.52;7.32;;;;;;;11.11;88.90;102295.66;5049572;28;20060;-65
2022/01/01 10:08:41;;;;;;;18.48;7.43;;;;;;;11.14;88.53;102294.66;5042772;28;20406;-65
2022/01/01 10:11:08;;;;;;;17.45;7.57;;;;;;;11.14;88.67;102288.44;5036247;28;20090;-66
2022/01/01 10:13:37;;;;;;;11.43;7.50;;;;;;;11.16;88.06;102289.22;5048246;28;20029;-66
2022/01/01 10:16:05;;;;;;;14.23;7.40;;;;;;;11.18;88.42;102282.03;5048198;28;20025;-66
2022/01/01 10:18:33;;;;;;;12.93;7.15;;;;;;;11.18;88.54;102280.22;5048090;28;20037;-65
2022/01/01 10:21:08;;;;;;;12.20;6.93;;;;;;;11.19;88.28;102276.63;5048084;28;20104;-66
2022/01/01 10:23:36;;;;;;;14.13;6.90;;;;;;;11.21;88.63;102273.88;5039639;28;20053;-65
2022/01/01 10:29:10;;;;;;;12.20;7.15;;;;;;;11.28;88.61;102267.25;5051572;28;20114;-65
2022/01/01 10:31:37;;;;;;;14.05;7.55;;;;;;;11.28;88.23;102260.13;5040896;28;20048;-66
2022/01/01 10:34:14;;;;;;;14.77;6.63;;;;;;;11.29;88.38;102261.84;5049229;28;20056;-66
2022/01/01 10:36:39;;;;;;;12.45;6.80;;;;;;;11.32;88.30;102262.63;5053268;28;20399;-66
2022/01/01 10:39:09;;;;;;;13.10;6.40;;;;;;;11.36;87.77;102258.81;5046071;28;20046;-65
2022/01/01 10:41:50;;;;;;;11.23;7.00;;;;;;;11.41;88.04;102256.78;5046559;28;20037;-65
2022/01/01 10:44:21;;;;;;;13.85;6.70;;;;;;;11.43;87.83;102252.22;5053700;28;20114;-65
2022/01/01 10:46:46;;;;;;;14.05;6.95;;;;;;;11.47;87.81;102248.44;5053501;28;20028;-65
2022/01/01 10:52:29;;;;;;;13.45;7.20;;;;;;;11.60;87.82;102236.13;5054600;28;20051;-65
2022/01/01 10:55:06;;;;;;;15.75;6.05;;;;;;;11.66;87.60;102237.59;5041322;28;20076;-66
2022/01/01 10:57:34;;;;;;;11.75;6.18;;;;;;;11.71;87.25;102234.63;5040835;28;20476;-66
2022/01/01 11:00:13;;;;;;;10.23;6.50;;;;;;;11.74;87.67;102222.03;5054292;28;20036;-65
2022/01/01 11:02:43;;;;;;;10.68;6.22;;;;;;;11.76;86.86;102221.94;5052997;28;20096;-65
2022/01/01 11:05:08;;;;;;;14.52;6.25;;;;;;;11.79;86.47;102233.25;5051435;28;20086;-65
2022/01/01 11:07:34;;;;;;;11.80;6.10;;;;;;;11.79;86.85;102222.59;5047873;28;20450;-66
2022/01/01 11:10:00;;;;;;;11.70;5.85;;;;;;;11.81;86.53;102218.03;5053544;28;20056;-66
2022/01/01 11:12:31;;;;;;;17.05;6.25;;;;;;;11.80;86.43;102226.97;5041279;28;20021;-65
2022/01/01 11:14:59;;;;;;;10.50;6.28;;;;;;;11.81;86.56;102228.69;5058650;28;20376;-66
2022/01/01 11:17:25;;;;;;;9.48;6.43;;;;;;;11.83;86.71;102231.25;5052044;28;20036;-66
2022/01/01 11:19:51;;;;;;;12.10;5.93;;;;;;;11.86;86.58;102220.44;5051552;28;20041;-65
2022/01/01 11:22:18;;;;;;;10.55;5.65;;;;;;;11.89;86.08;102222.91;5050888;28;20027;-66